sensor_id;sensor_type;location;lat;lon;timestamp;pressure;altitude;pressure_sealevel;temperature;humidity
9893;BME280;4985;49.092;8.542;2023-05-12T00:00:01;99073.19;;;20.53;52.69
9893;BME280;4985;49.092;8.542;2023-05-12T00:02:28;99066.22;;;20.52;52.71
9893;BME280;4985;49.092;8.542;2023-05-12T00:04:55;99065.19;;;20.53;52.70
9893;BME280;4985;49.092;8.542;2023-05-12T00:07:22;99060.88;;;20.52;52.70
9893;BME280;4985;49.092;8.542;2023-05-12T00:09:48;99064.59;;;20.51;52.71
9893;BME280;4985;49.092;8.542;2023-05-12T00:12:15;99064.59;;;20.51;52.70
9893;BME280;4985;49.092;8.542;2023-05-12T00:14:41;99053.09;;;20.50;52.71
9893;BME280;4985;49.092;8.542;2023-05-12T00:17:09;99054.94;;;20.50;52.71
9893;BME280;4985;49.092;8.542;2023-05-12T00:19:38;99057.59;;;20.50;52.70
9893;BME280;4985;49.092;8.542;2023-05-12T00:22:08;99051.44;;;20.49;52.70
9893;BME280;4985;49.092;8.542;2023-05-12T00:24:34;99050.63;;;20.49;52.71
9893;BME280;4985;49.092;8.542;2023-05-12T00:27:01;99044.47;;;20.48;52.71
9893;BME280;4985;49.092;8.542;2023-05-12T00:29:27;99050.63;;;20.49;52.71
9893;BME280;4985;49.092;8.542;2023-05-12T00:31:54;99050.63;;;20.49;52.72
9893;BME280;4985;49.092;8.542;2023-05-12T00:34:22;99049.00;;;20.48;52.70
9893;BME280;4985;49.092;8.542;2023-05-12T00:36:49;99043.09;;;20.46;52.71
9893;BME280;4985;49.092;8.542;2023-05-12T00:39:15;99042.84;;;20.47;52.72
9893;BME280;4985;49.092;8.542;2023-05-12T00:41:42;99044.72;;;20.47;52.71
9893;BME280;4985;49.092;8.542;2023-05-12T00:44:08;99046.56;;;20.46;52.71
9893;BME280;4985;49.092;8.542;2023-05-12T00:46:35;99049.00;;;20.48;52.72
9893;BME280;4985;49.092;8.542;2023-05-12T00:49:03;99045.75;;;20.46;52.71
9893;BME280;4985;49.092;8.542;2023-05-12T00:51:31;99042.28;;;20.45;52.71
9893;BME280;4985;49.092;8.542;2023-05-12T00:53:58;99038.78;;;20.45;52.70
9893;BME280;4985;49.092;8.542;2023-05-12T00:56:24;99042.28;;;20.45;52.72
9893;BME280;4985;49.092;8.542;2023-05-12T00:58:51;99034.25;;;20.45;52.71
9893;BME280;4985;49.092;8.542;2023-05-12T01:01:18;99031.81;;;20.44;52.71
9893;BME280;4985;49.092;8.542;2023-05-12T01:03:44;99034.47;;;20.44;52.72
9893;BME280;4985;49.092;8.542;2023-05-12T01:06:13;99032.87;;;20.43;52.72
9893;BME280;4985;49.092;8.542;2023-05-12T01:08:43;99031.81;;;20.44;52.72
9893;BME280;4985;49.092;8.542;2023-05-12T01:11:10;99030.19;;;20.43;52.72
9893;BME280;4985;49.092;8.542;2023-05-12T01:13:37;99035.53;;;20.43;52.72
9893;BME280;4985;49.092;8.542;2023-05-12T01:16:08;99032.87;;;20.43;52.72
9893;BME280;4985;49.092;8.542;2023-05-12T01:18:36;99029.38;;;20.42;52.73
9893;BME280;4985;49.092;8.542;2023-05-12T01:21:04;99030.41;;;20.41;52.72
9893;BME280;4985;49.092;8.542;2023-05-12T01:23:34;99031.22;;;20.42;52.72
9893;BME280;4985;49.092;8.542;2023-05-12T01:26:03;99032.25;;;20.41;52.72
9893;BME280;4985;49.092;8.542;2023-05-12T01:28:32;99032.25;;;20.41;52.72
9893;BME280;4985;49.092;8.542;2023-05-12T01:31:00;99030.63;;;20.40;52.73
9893;BME280;4985;49.092;8.542;2023-05-12T01:33:26;99032.25;;;20.41;52.72
9893;BME280;4985;49.092;8.542;2023-05-12T01:35:53;99035.97;;;20.40;52.73
9893;BME280;4985;49.092;8.542;2023-05-12T01:38:20;99037.03;;;20.39;52.73
9893;BME280;4985;49.092;8.542;2023-05-12T01:40:47;99039.69;;;20.39;52.73
9893;BME280;4985;49.092;8.542;2023-05-12T01:43:15;99042.38;;;20.39;52.72
9893;BME280;4985;49.092;8.542;2023-05-12T01:45:41;99041.53;;;20.38;52.72
9893;BME280;4985;49.092;8.542;2023-05-12T01:48:08;99036.19;;;20.38;52.73
9893;BME280;4985;49.092;8.542;2023-05-12T01:50:34;99038.84;;;20.38;52.72
9893;BME280;4985;49.092;8.542;2023-05-12T01:53:01;99042.56;;;20.37;52.71
9893;BME280;4985;49.092;8.542;2023-05-12T01:55:28;99047.94;;;20.37;52.72
9893;BME280;4985;49.092;8.542;2023-05-12T01:57:54;99034.78;;;20.35;52.72
9893;BME280;4985;49.092;8.542;2023-05-12T02:00:22;99044.44;;;20.36;52.72
9893;BME280;4985;49.092;8.542;2023-05-12T02:02:49;99040.97;;;20.36;52.72
9893;BME280;4985;49.092;8.542;2023-05-12T02:05:15;99035.84;;;20.34;52.72
9893;BME280;4985;49.092;8.542;2023-05-12T02:07:42;99035.03;;;20.34;52.71
9893;BME280;4985;49.092;8.542;2023-05-12T02:10:11;99036.66;;;20.35;52.72
9893;BME280;4985;49.092;8.542;2023-05-12T02:12:38;99038.50;;;20.34;52.72
9893;BME280;4985;49.092;8.542;2023-05-12T02:15:05;99035.84;;;20.34;52.72
9893;BME280;4985;49.092;8.542;2023-05-12T02:17:33;99029.91;;;20.32;52.72
9893;BME280;4985;49.092;8.542;2023-05-12T02:20:00;99030.72;;;20.33;52.72
9893;BME280;4985;49.092;8.542;2023-05-12T02:22:27;99035.28;;;20.32;52.72
9893;BME280;4985;49.092;8.542;2023-05-12T02:24:54;99037.94;;;20.32;52.73
9893;BME280;4985;49.092;8.542;2023-05-12T02:27:20;99030.97;;;20.31;52.73
9893;BME280;4985;49.092;8.542;2023-05-12T02:29:47;99033.66;;;20.31;52.72
9893;BME280;4985;49.092;8.542;2023-05-12T02:32:13;99036.31;;;20.31;52.72
9893;BME280;4985;49.092;8.542;2023-05-12T02:34:41;99032.03;;;20.30;52.73
9893;BME280;4985;49.092;8.542;2023-05-12T02:37:08;99032.03;;;20.30;52.73
9893;BME280;4985;49.092;8.542;2023-05-12T02:39:34;99029.34;;;20.30;52.73
9893;BME280;4985;49.092;8.542;2023-05-12T02:42:01;99036.56;;;20.30;52.72
9893;BME280;4985;49.092;8.542;2023-05-12T02:44:27;99032.25;;;20.29;52.73
9893;BME280;4985;49.092;8.542;2023-05-12T02:46:54;99028.78;;;20.28;52.73
9893;BME280;4985;49.092;8.542;2023-05-12T02:49:22;99030.63;;;20.28;52.72
9893;BME280;4985;49.092;8.542;2023-05-12T02:51:50;99027.97;;;20.28;52.74
9893;BME280;4985;49.092;8.542;2023-05-12T02:54:16;99025.50;;;20.26;52.74
9893;BME280;4985;49.092;8.542;2023-05-12T02:56:43;99030.84;;;20.26;52.74
9893;BME280;4985;49.092;8.542;2023-05-12T02:59:09;99029.22;;;20.25;52.74
9893;BME280;4985;49.092;8.542;2023-05-12T03:01:36;99024.69;;;20.26;52.74
9893;BME280;4985;49.092;8.542;2023-05-12T03:04:03;99029.22;;;20.25;52.73
9893;BME280;4985;49.092;8.542;2023-05-12T03:06:29;99023.88;;;20.25;52.74
9893;BME280;4985;49.092;8.542;2023-05-12T03:08:57;99028.41;;;20.25;52.74
9893;BME280;4985;49.092;8.542;2023-05-12T03:11:24;99030.25;;;20.24;52.73
9893;BME280;4985;49.092;8.542;2023-05-12T03:13:51;99032.94;;;20.24;52.74
9893;BME280;4985;49.092;8.542;2023-05-12T03:16:17;99030.50;;;20.23;52.73
9893;BME280;4985;49.092;8.542;2023-05-12T03:18:44;99032.13;;;20.24;52.74
9893;BME280;4985;49.092;8.542;2023-05-12T03:21:10;99037.47;;;20.24;52.74
9893;BME280;4985;49.092;8.542;2023-05-12T03:23:37;99028.88;;;20.22;52.74
9893;BME280;4985;49.092;8.542;2023-05-12T03:26:05;99029.69;;;20.22;52.75
9893;BME280;4985;49.092;8.542;2023-05-12T03:28:31;99026.44;;;20.20;52.73
9893;BME280;4985;49.092;8.542;2023-05-12T03:30:58;99028.06;;;20.21;52.74
9893;BME280;4985;49.092;8.542;2023-05-12T03:33:25;99032.59;;;20.21;52.73
9893;BME280;4985;49.092;8.542;2023-05-12T03:35:51;99030.72;;;20.21;52.74
9893;BME280;4985;49.092;8.542;2023-05-12T03:38:18;99028.28;;;20.20;52.74
9893;BME280;4985;49.092;8.542;2023-05-12T03:40:44;99031.78;;;20.20;52.74
9893;BME280;4985;49.092;8.542;2023-05-12T03:43:18;99030.16;;;20.19;52.74
9893;BME280;4985;49.092;8.542;2023-05-12T03:45:45;99032.00;;;20.19;52.75
9893;BME280;4985;49.092;8.542;2023-05-12T03:48:12;99032.25;;;20.17;52.76
9893;BME280;4985;49.092;8.542;2023-05-12T03:50:38;99032.25;;;20.17;52.77
9893;BME280;4985;49.092;8.542;2023-05-12T03:53:05;99026.91;;;20.17;52.77
9893;BME280;4985;49.092;8.542;2023-05-12T03:55:31;99026.91;;;20.17;52.77
9893;BME280;4985;49.092;8.542;2023-05-12T03:57:58;99023.41;;;20.17;52.76
9893;BME280;4985;49.092;8.542;2023-05-12T04:00:25;99025.28;;;20.16;52.77
9893;BME280;4985;49.092;8.542;2023-05-12T04:02:52;99030.63;;;20.16;52.76
9893;BME280;4985;49.092;8.542;2023-05-12T04:05:19;99037.00;;;20.15;52.77
9893;BME280;4985;49.092;8.542;2023-05-12T04:07:45;99031.63;;;20.15;52.77
9893;BME280;4985;49.092;8.542;2023-05-12T04:10:12;99027.34;;;20.14;52.78
9893;BME280;4985;49.092;8.542;2023-05-12T04:12:39;99027.34;;;20.14;52.77
9893;BME280;4985;49.092;8.542;2023-05-12T04:15:06;99035.38;;;20.14;52.78
9893;BME280;4985;49.092;8.542;2023-05-12T04:17:34;99028.41;;;20.13;52.79
9893;BME280;4985;49.092;8.542;2023-05-12T04:20:01;99040.72;;;20.14;52.78
9893;BME280;4985;49.092;8.542;2023-05-12T04:22:28;99035.59;;;20.13;52.78
9893;BME280;4985;49.092;8.542;2023-05-12T04:24:54;99031.31;;;20.12;52.77
9893;BME280;4985;49.092;8.542;2023-05-12T04:27:21;99029.44;;;20.12;52.77
9893;BME280;4985;49.092;8.542;2023-05-12T04:29:48;99040.13;;;20.12;52.77
9893;BME280;4985;49.092;8.542;2023-05-12T04:32:14;99033.97;;;20.12;52.78
9893;BME280;4985;49.092;8.542;2023-05-12T04:34:42;99043.84;;;20.11;52.78
9893;BME280;4985;49.092;8.542;2023-05-12T04:37:09;99040.37;;;20.11;52.79
9893;BME280;4985;49.092;8.542;2023-05-12T04:39:35;99042.22;;;20.10;52.79
9893;BME280;4985;49.092;8.542;2023-05-12T04:42:02;99039.56;;;20.10;52.79
9893;BME280;4985;49.092;8.542;2023-05-12T04:44:29;99042.22;;;20.10;52.80
9893;BME280;4985;49.092;8.542;2023-05-12T04:46:55;99035.25;;;20.09;52.79
9893;BME280;4985;49.092;8.542;2023-05-12T04:49:22;99045.94;;;20.09;52.81
9893;BME280;4985;49.092;8.542;2023-05-12T04:51:50;99033.63;;;20.08;52.80
9893;BME280;4985;49.092;8.542;2023-05-12T04:54:16;99042.47;;;20.09;52.79
9893;BME280;4985;49.092;8.542;2023-05-12T04:56:43;99044.31;;;20.08;52.80
9893;BME280;4985;49.092;8.542;2023-05-12T04:59:09;99044.31;;;20.08;52.80
9893;BME280;4985;49.092;8.542;2023-05-12T05:01:39;99043.50;;;20.08;52.80
9893;BME280;4985;49.092;8.542;2023-05-12T05:04:06;99044.31;;;20.08;52.79
9893;BME280;4985;49.092;8.542;2023-05-12T05:06:32;99053.38;;;20.07;52.78
9893;BME280;4985;49.092;8.542;2023-05-12T05:09:00;99050.47;;;20.09;52.79
9893;BME280;4985;49.092;8.542;2023-05-12T05:11:27;99059.53;;;20.08;52.79
9893;BME280;4985;49.092;8.542;2023-05-12T05:13:54;99064.88;;;20.08;52.79
9893;BME280;4985;49.092;8.542;2023-05-12T05:16:20;99057.09;;;20.06;52.77
9893;BME280;4985;49.092;8.542;2023-05-12T05:18:47;99061.41;;;20.07;52.78
9893;BME280;4985;49.092;8.542;2023-05-12T05:21:14;99057.09;;;20.06;52.77
9893;BME280;4985;49.092;8.542;2023-05-12T05:23:41;99060.59;;;20.06;52.77
9893;BME280;4985;49.092;8.542;2023-05-12T05:26:09;99062.44;;;20.06;52.77
9893;BME280;4985;49.092;8.542;2023-05-12T05:28:36;99061.63;;;20.05;52.78
9893;BME280;4985;49.092;8.542;2023-05-12T05:31:04;99067.78;;;20.06;52.78
9893;BME280;4985;49.092;8.542;2023-05-12T05:33:30;99066.16;;;20.05;52.78
9893;BME280;4985;49.092;8.542;2023-05-12T05:35:57;99060.81;;;20.05;52.78
9893;BME280;4985;49.092;8.542;2023-05-12T05:38:24;99065.31;;;20.04;52.78
9893;BME280;4985;49.092;8.542;2023-05-12T05:40:51;99064.50;;;20.04;52.77
9893;BME280;4985;49.092;8.542;2023-05-12T05:43:19;99071.50;;;20.05;52.79
9893;BME280;4985;49.092;8.542;2023-05-12T05:45:45;99064.50;;;20.04;52.77
9893;BME280;4985;49.092;8.542;2023-05-12T05:48:13;99069.84;;;20.04;52.77
9893;BME280;4985;49.092;8.542;2023-05-12T05:50:40;99066.38;;;20.03;52.78
9893;BME280;4985;49.092;8.542;2023-05-12T05:53:06;99069.84;;;20.04;52.77
9893;BME280;4985;49.092;8.542;2023-05-12T05:55:33;99068.22;;;20.03;52.78
9893;BME280;4985;49.092;8.542;2023-05-12T05:57:59;99073.56;;;20.03;52.79
9893;BME280;4985;49.092;8.542;2023-05-12T06:00:27;99078.91;;;20.03;52.79
9893;BME280;4985;49.092;8.542;2023-05-12T06:02:54;99076.47;;;20.01;52.79
9893;BME280;4985;49.092;8.542;2023-05-12T06:05:21;99078.09;;;20.02;52.79
9893;BME280;4985;49.092;8.542;2023-05-12T06:07:47;99086.13;;;20.02;52.80
9893;BME280;4985;49.092;8.542;2023-05-12T06:10:14;99078.34;;;20.01;52.80
9893;BME280;4985;49.092;8.542;2023-05-12T06:12:40;99081.59;;;20.03;52.80
9893;BME280;4985;49.092;8.542;2023-05-12T06:15:08;99079.97;;;20.02;52.79
9893;BME280;4985;49.092;8.542;2023-05-12T06:17:36;99082.62;;;20.02;52.78
9893;BME280;4985;49.092;8.542;2023-05-12T06:20:03;99082.62;;;20.02;52.78
9893;BME280;4985;49.092;8.542;2023-05-12T06:22:30;99083.09;;;19.99;52.79
9893;BME280;4985;49.092;8.542;2023-05-12T06:24:57;99089.03;;;20.01;52.79
9893;BME280;4985;49.092;8.542;2023-05-12T06:27:24;99077.84;;;19.92;52.80
9893;BME280;4985;49.092;8.542;2023-05-12T06:29:50;99091.69;;;20.01;52.80
9893;BME280;4985;49.092;8.542;2023-05-12T06:32:17;99095.19;;;20.01;52.81
9893;BME280;4985;49.092;8.542;2023-05-12T06:34:45;99090.88;;;20.00;52.79
9893;BME280;4985;49.092;8.542;2023-05-12T06:37:11;99089.03;;;20.01;52.80
9893;BME280;4985;49.092;8.542;2023-05-12T06:39:38;99087.16;;;20.01;52.78
9893;BME280;4985;49.092;8.542;2023-05-12T06:42:05;99094.37;;;20.01;52.79
9893;BME280;4985;49.092;8.542;2023-05-12T06:44:31;99091.69;;;20.01;52.79
9893;BME280;4985;49.092;8.542;2023-05-12T06:46:58;99097.03;;;20.01;52.79
9893;BME280;4985;49.092;8.542;2023-05-12T06:49:24;99097.03;;;20.01;52.80
9893;BME280;4985;49.092;8.542;2023-05-12T06:51:52;99089.25;;;19.99;52.80
9893;BME280;4985;49.092;8.542;2023-05-12T06:54:20;99095.41;;;20.00;52.80
9893;BME280;4985;49.092;8.542;2023-05-12T06:56:46;99098.09;;;20.00;52.82
9893;BME280;4985;49.092;8.542;2023-05-12T06:59:13;99095.63;;;19.98;52.82
9893;BME280;4985;49.092;8.542;2023-05-12T07:01:39;99099.13;;;19.99;52.84
9893;BME280;4985;49.092;8.542;2023-05-12T07:04:07;99100.16;;;19.98;52.84
9893;BME280;4985;49.092;8.542;2023-05-12T07:06:33;99102.03;;;19.97;52.85
9893;BME280;4985;49.092;8.542;2023-05-12T07:09:01;99104.47;;;19.99;52.87
9893;BME280;4985;49.092;8.542;2023-05-12T07:11:28;99104.47;;;19.99;52.86
9893;BME280;4985;49.092;8.542;2023-05-12T07:13:54;99107.13;;;19.99;52.88
9893;BME280;4985;49.092;8.542;2023-05-12T07:16:21;99102.03;;;19.97;52.86
9893;BME280;4985;49.092;8.542;2023-05-12T07:18:48;99100.16;;;19.98;52.88
9893;BME280;4985;49.092;8.542;2023-05-12T07:21:14;99107.38;;;19.97;52.89
9893;BME280;4985;49.092;8.542;2023-05-12T07:23:41;99107.13;;;19.99;52.88
9893;BME280;4985;49.092;8.542;2023-05-12T07:26:09;99104.47;;;19.99;52.86
9893;BME280;4985;49.092;8.542;2023-05-12T07:28:35;99099.13;;;19.99;52.86
9893;BME280;4985;49.092;8.542;2023-05-12T07:31:02;99102.84;;;19.98;52.86
9893;BME280;4985;49.092;8.542;2023-05-12T07:33:30;99096.69;;;19.97;52.86
9893;BME280;4985;49.092;8.542;2023-05-12T07:35:56;99103.88;;;19.97;52.86
9893;BME280;4985;49.092;8.542;2023-05-12T07:38:23;99098.53;;;19.97;52.88
9893;BME280;4985;49.092;8.542;2023-05-12T07:40:50;99093.44;;;19.95;52.89
9893;BME280;4985;49.092;8.542;2023-05-12T07:43:18;99093.44;;;19.95;52.90
9893;BME280;4985;49.092;8.542;2023-05-12T07:45:45;99099.59;;;19.96;52.91
9893;BME280;4985;49.092;8.542;2023-05-12T07:48:12;99091.56;;;19.96;52.92
9893;BME280;4985;49.092;8.542;2023-05-12T07:50:39;99098.53;;;19.97;52.93
9893;BME280;4985;49.092;8.542;2023-05-12T07:53:05;99098.53;;;19.97;52.93
9893;BME280;4985;49.092;8.542;2023-05-12T07:55:32;99091.00;;;19.94;52.94
9893;BME280;4985;49.092;8.542;2023-05-12T07:57:59;99087.50;;;19.93;52.95
9893;BME280;4985;49.092;8.542;2023-05-12T08:00:27;99090.53;;;19.97;52.95
9893;BME280;4985;49.092;8.542;2023-05-12T08:02:54;99090.53;;;19.97;52.95
9893;BME280;4985;49.092;8.542;2023-05-12T08:05:21;99093.19;;;19.97;52.95
9893;BME280;4985;49.092;8.542;2023-05-12T08:07:48;99092.16;;;19.98;52.96
9893;BME280;4985;49.092;8.542;2023-05-12T08:10:14;99088.66;;;19.97;52.98
9893;BME280;4985;49.092;8.542;2023-05-12T08:12:41;99092.97;;;19.98;52.98
9893;BME280;4985;49.092;8.542;2023-05-12T08:15:08;99092.63;;;19.95;52.99
9893;BME280;4985;49.092;8.542;2023-05-12T08:17:36;99090.31;;;19.98;52.99
9893;BME280;4985;49.092;8.542;2023-05-12T08:20:04;99086.81;;;19.98;52.98
9893;BME280;4985;49.092;8.542;2023-05-12T08:22:31;99094.59;;;19.99;52.98
9893;BME280;4985;49.092;8.542;2023-05-12T08:24:57;99090.31;;;19.98;52.98
9893;BME280;4985;49.092;8.542;2023-05-12T08:27:24;99091.09;;;19.99;52.99
9893;BME280;4985;49.092;8.542;2023-05-12T08:29:50;99092.97;;;19.98;53.00
9893;BME280;4985;49.092;8.542;2023-05-12T08:32:17;99098.31;;;19.98;52.98
9893;BME280;4985;49.092;8.542;2023-05-12T08:34:45;99092.97;;;19.98;52.96
9893;BME280;4985;49.092;8.542;2023-05-12T08:37:12;99099.72;;;20.01;52.95
9893;BME280;4985;49.092;8.542;2023-05-12T08:39:38;99099.47;;;20.02;52.92
9893;BME280;4985;49.092;8.542;2023-05-12T08:42:11;99102.37;;;20.01;52.91
9893;BME280;4985;49.092;8.542;2023-05-12T08:44:42;99102.37;;;20.01;52.89
9893;BME280;4985;49.092;8.542;2023-05-12T08:47:10;99099.47;;;20.02;52.88
9893;BME280;4985;49.092;8.542;2023-05-12T08:49:38;99100.53;;;20.01;52.87
9893;BME280;4985;49.092;8.542;2023-05-12T08:52:07;99109.34;;;20.02;52.86
9893;BME280;4985;49.092;8.542;2023-05-12T08:54:35;99108.53;;;20.01;52.85
9893;BME280;4985;49.092;8.542;2023-05-12T08:57:03;99106.69;;;20.02;52.84
9893;BME280;4985;49.092;8.542;2023-05-12T08:59:30;99114.09;;;20.00;52.83
9893;BME280;4985;49.092;8.542;2023-05-12T09:01:57;99120.03;;;20.02;52.82
9893;BME280;4985;49.092;8.542;2023-05-12T09:04:26;99121.66;;;20.03;52.82
9893;BME280;4985;49.092;8.542;2023-05-12T09:06:53;99116.56;;;20.01;52.82
9893;BME280;4985;49.092;8.542;2023-05-12T09:09:21;99117.37;;;20.02;52.82
9893;BME280;4985;49.092;8.542;2023-05-12T09:11:49;99117.37;;;20.02;52.82
9893;BME280;4985;49.092;8.542;2023-05-12T09:14:22;99120.84;;;20.02;52.83
9893;BME280;4985;49.092;8.542;2023-05-12T09:16:54;99114.69;;;20.02;52.83
9893;BME280;4985;49.092;8.542;2023-05-12T09:19:25;99119.22;;;20.01;52.83
9893;BME280;4985;49.092;8.542;2023-05-12T09:21:51;99116.56;;;20.01;52.84
9893;BME280;4985;49.092;8.542;2023-05-12T09:24:18;99112.03;;;20.02;52.86
9893;BME280;4985;49.092;8.542;2023-05-12T09:26:48;99112.25;;;20.00;52.88
9893;BME280;4985;49.092;8.542;2023-05-12T09:29:15;99113.06;;;20.01;52.89
9893;BME280;4985;49.092;8.542;2023-05-12T09:31:48;99114.94;;;20.00;52.89
9893;BME280;4985;49.092;8.542;2023-05-12T09:34:15;99115.97;;;19.99;52.92
9893;BME280;4985;49.092;8.542;2023-05-12T09:36:41;99101.78;;;19.99;52.92
9893;BME280;4985;49.092;8.542;2023-05-12T09:39:09;99112.47;;;19.99;52.94
9893;BME280;4985;49.092;8.542;2023-05-12T09:41:36;99097.72;;;19.96;52.92
9893;BME280;4985;49.092;8.542;2023-05-12T09:44:05;99110.41;;;20.01;52.92
9893;BME280;4985;49.092;8.542;2023-05-12T09:46:32;99111.44;;;20.00;52.92
9893;BME280;4985;49.092;8.542;2023-05-12T09:48:59;99110.41;;;20.01;52.93
9893;BME280;4985;49.092;8.542;2023-05-12T09:51:26;99114.56;;;19.97;52.93
9893;BME280;4985;49.092;8.542;2023-05-12T09:53:53;99112.25;;;20.00;52.94
9893;BME280;4985;49.092;8.542;2023-05-12T09:56:20;99114.69;;;20.02;52.94
9893;BME280;4985;49.092;8.542;2023-05-12T09:58:48;99113.06;;;20.01;52.95
9893;BME280;4985;49.092;8.542;2023-05-12T10:01:17;99111.44;;;20.00;52.95
9893;BME280;4985;49.092;8.542;2023-05-12T10:03:45;99107.72;;;20.01;52.96
9893;BME280;4985;49.092;8.542;2023-05-12T10:06:15;99106.09;;;20.00;52.97
9893;BME280;4985;49.092;8.542;2023-05-12T10:08:48;99107.94;;;19.99;52.97
9893;BME280;4985;49.092;8.542;2023-05-12T10:11:16;99113.31;;;19.99;52.98
9893;BME280;4985;49.092;8.542;2023-05-12T10:13:44;99118.41;;;20.01;52.98
9893;BME280;4985;49.092;8.542;2023-05-12T10:16:12;99110.41;;;20.01;52.99
9893;BME280;4985;49.092;8.542;2023-05-12T10:18:41;99105.06;;;20.01;52.99
9893;BME280;4985;49.092;8.542;2023-05-12T10:21:08;99110.63;;;19.99;53.00
9893;BME280;4985;49.092;8.542;2023-05-12T10:23:38;99113.06;;;20.01;53.01
9893;BME280;4985;49.092;8.542;2023-05-12T10:26:05;99111.22;;;20.01;52.99
9893;BME280;4985;49.092;8.542;2023-05-12T10:28:33;99118.41;;;20.01;52.98
9893;BME280;4985;49.092;8.542;2023-05-12T10:30:59;99115.75;;;20.01;52.96
9893;BME280;4985;49.092;8.542;2023-05-12T10:33:26;99119.22;;;20.01;52.95
9893;BME280;4985;49.092;8.542;2023-05-12T10:35:54;99120.84;;;20.02;52.92
9893;BME280;4985;49.092;8.542;2023-05-12T10:38:21;99121.66;;;20.03;52.92
9893;BME280;4985;49.092;8.542;2023-05-12T10:40:50;99124.34;;;20.03;52.92
9893;BME280;4985;49.092;8.542;2023-05-12T10:43:21;99120.84;;;20.02;52.93
9893;BME280;4985;49.092;8.542;2023-05-12T10:46:09;99109.81;;;19.99;52.94
9893;BME280;4985;49.092;8.542;2023-05-12T10:48:51;99118.75;;;20.04;52.94
9893;BME280;4985;49.092;8.542;2023-05-12T10:51:20;99117.13;;;20.03;52.95
9893;BME280;4985;49.092;8.542;2023-05-12T10:53:50;99114.47;;;20.03;52.94
9893;BME280;4985;49.092;8.542;2023-05-12T10:56:21;99111.78;;;20.03;52.95
9893;BME280;4985;49.092;8.542;2023-05-12T10:59:12;99113.66;;;20.03;52.96
9893;BME280;4985;49.092;8.542;2023-05-12T11:01:41;99121.44;;;20.04;52.95
9893;BME280;4985;49.092;8.542;2023-05-12T11:04:09;99112.03;;;20.02;52.96
9893;BME280;4985;49.092;8.542;2023-05-12T11:06:37;99114.25;;;20.05;52.97
9893;BME280;4985;49.092;8.542;2023-05-12T11:09:04;99109.94;;;20.04;52.99
9893;BME280;4985;49.092;8.542;2023-05-12T11:11:31;99108.06;;;20.04;53.01
9893;BME280;4985;49.092;8.542;2023-05-12T11:13:58;99108.91;;;20.05;53.01
9893;BME280;4985;49.092;8.542;2023-05-12T11:16:25;99100.91;;;20.05;53.02
9893;BME280;4985;49.092;8.542;2023-05-12T11:18:59;99105.19;;;20.06;53.03
9893;BME280;4985;49.092;8.542;2023-05-12T11:21:27;99097.84;;;20.01;53.06
9893;BME280;4985;49.092;8.542;2023-05-12T11:23:56;99110.53;;;20.06;53.08
9893;BME280;4985;49.092;8.542;2023-05-12T11:26:23;99114.03;;;20.06;53.09
9893;BME280;4985;49.092;8.542;2023-05-12T11:28:49;99106.00;;;20.06;53.11
9893;BME280;4985;49.092;8.542;2023-05-12T11:31:17;99108.44;;;20.08;53.12
9893;BME280;4985;49.092;8.542;2023-05-12T11:33:44;99113.78;;;20.08;53.12
9893;BME280;4985;49.092;8.542;2023-05-12T11:36:11;99104.72;;;20.09;53.13
9893;BME280;4985;49.092;8.542;2023-05-12T11:38:38;99109.03;;;20.10;53.13
9893;BME280;4985;49.092;8.542;2023-05-12T11:41:06;99106.12;;;20.12;53.11
9893;BME280;4985;49.092;8.542;2023-05-12T11:43:33;99111.69;;;20.10;53.11
9893;BME280;4985;49.092;8.542;2023-05-12T11:45:59;99115.19;;;20.11;53.12
9893;BME280;4985;49.092;8.542;2023-05-12T11:48:32;99114.12;;;20.12;53.12
9893;BME280;4985;49.092;8.542;2023-05-12T11:50:58;99114.12;;;20.12;53.13
9893;BME280;4985;49.092;8.542;2023-05-12T11:53:25;99110.41;;;20.13;53.11
9893;BME280;4985;49.092;8.542;2023-05-12T11:55:53;99112.03;;;20.14;53.12
9893;BME280;4985;49.092;8.542;2023-05-12T11:58:23;99120.06;;;20.14;53.12
9893;BME280;4985;49.092;8.542;2023-05-12T12:00:51;99114.47;;;20.15;53.11
9893;BME280;4985;49.092;8.542;2023-05-12T12:03:18;99108.31;;;20.15;53.11
9893;BME280;4985;49.092;8.542;2023-05-12T12:05:57;99112.84;;;20.14;53.13
9893;BME280;4985;49.092;8.542;2023-05-12T12:08:25;99119.84;;;20.15;53.15
9893;BME280;4985;49.092;8.542;2023-05-12T12:10:51;99111.81;;;20.15;53.14
9893;BME280;4985;49.092;8.542;2023-05-12T12:13:20;99118.81;;;20.16;53.15
9893;BME280;4985;49.092;8.542;2023-05-12T12:15:47;99116.97;;;20.17;53.15
9893;BME280;4985;49.092;8.542;2023-05-12T12:18:14;99115.09;;;20.17;53.15
9893;BME280;4985;49.092;8.542;2023-05-12T12:20:41;99115.69;;;20.19;53.15
9893;BME280;4985;49.092;8.542;2023-05-12T12:23:07;99116.50;;;20.20;53.15
9893;BME280;4985;49.092;8.542;2023-05-12T12:25:34;99115.69;;;20.19;53.14
9893;BME280;4985;49.092;8.542;2023-05-12T12:28:01;99119.97;;;20.20;53.14
9893;BME280;4985;49.092;8.542;2023-05-12T12:30:29;99119.97;;;20.20;53.12
9893;BME280;4985;49.092;8.542;2023-05-12T12:32:56;99115.09;;;20.17;53.09
9893;BME280;4985;49.092;8.542;2023-05-12T12:35:22;99119.75;;;20.22;53.07
9893;BME280;4985;49.092;8.542;2023-05-12T12:37:49;99118.94;;;20.21;53.07
9893;BME280;4985;49.092;8.542;2023-05-12T12:40:17;99125.09;;;20.22;53.06
9893;BME280;4985;49.092;8.542;2023-05-12T12:42:44;99129.38;;;20.23;53.06
9893;BME280;4985;49.092;8.542;2023-05-12T12:45:11;99122.19;;;20.23;53.04
9893;BME280;4985;49.092;8.542;2023-05-12T12:47:39;99133.69;;;20.24;53.04
9893;BME280;4985;49.092;8.542;2023-05-12T12:50:07;99134.50;;;20.24;53.04
9893;BME280;4985;49.092;8.542;2023-05-12T12:52:35;99128.34;;;20.24;53.05
9893;BME280;4985;49.092;8.542;2023-05-12T12:55:02;99132.87;;;20.23;53.05
9893;BME280;4985;49.092;8.542;2023-05-12T12:57:29;99128.09;;;20.25;53.04
9893;BME280;4985;49.092;8.542;2023-05-12T12:59:55;99136.94;;;20.26;53.03
9893;BME280;4985;49.092;8.542;2023-05-12T13:02:22;99138.38;;;20.28;53.02
9893;BME280;4985;49.092;8.542;2023-05-12T13:04:50;99136.50;;;20.29;53.00
9893;BME280;4985;49.092;8.542;2023-05-12T13:07:17;99133.59;;;20.30;52.99
9893;BME280;4985;49.092;8.542;2023-05-12T13:09:43;99134.41;;;20.31;52.98
9893;BME280;4985;49.092;8.542;2023-05-12T13:12:10;99140.56;;;20.31;52.98
9893;BME280;4985;49.092;8.542;2023-05-12T13:14:36;99140.56;;;20.31;52.99
9893;BME280;4985;49.092;8.542;2023-05-12T13:17:03;99142.19;;;20.32;53.00
9893;BME280;4985;49.092;8.542;2023-05-12T13:19:30;99142.19;;;20.32;53.00
9893;BME280;4985;49.092;8.542;2023-05-12T13:21:58;99137.66;;;20.33;52.99